EWG7HW EDDH-LGKR
Flight info
| Callsign | EWG7HW |
|---|---|
| Flight time | 2h 21m |
| Altitude | 37000 |
| Route | AMLUH2G AMLUH M852 DENIX DCT ZUCKA DCT ARMUT DCT LAMSI DCT PETOV DCT ZAG DCT SOLGU DCT BIGLO DCT RODON DCT LIMJA DCT PITAS |
| Aircraft | A320/M-SDE3FGHIRWY/LB1 |
Departure
| Time | 2026-04-25 12:19 |
|---|---|
| Airport | Hamburg Helmut Schmidt Airport (EDDH) |
Arrival
| Time | 2026-04-25 14:41 |
|---|---|
| Airport | Corfu Ioannis Kapodistrias International Airport (LGKR) |
| Time | Latitude | Longitude | Altitude | Speed | Heading |
|---|---|---|---|---|---|
| 2026-04-25 11:45 | 53.63167 | 10.00359 | 49 ft | 0 kts | 86° |
| 2026-04-25 12:11 | 53.63167 | 10.00354 | 48 ft | 3 kts | 86° |
| 2026-04-25 12:11 | 53.63165 | 10.00310 | 48 ft | 3 kts | 86° |
| 2026-04-25 12:12 | 53.63165 | 10.00274 | 48 ft | 4 kts | 111° |
| 2026-04-25 12:12 | 53.63180 | 10.00251 | 47 ft | 3 kts | 176° |
| 2026-04-25 12:12 | 53.63196 | 10.00249 | 48 ft | 0 kts | 176° |
| 2026-04-25 12:16 | 53.63192 | 10.00250 | 48 ft | 4 kts | 176° |
| 2026-04-25 12:16 | 53.63146 | 10.00255 | 45 ft | 9 kts | 176° |
| 2026-04-25 12:17 | 53.63064 | 10.00255 | 48 ft | 14 kts | 195° |
| 2026-04-25 12:17 | 53.62973 | 10.00161 | 48 ft | 16 kts | 213° |
| 2026-04-25 12:17 | 53.62877 | 10.00050 | 47 ft | 15 kts | 221° |
| 2026-04-25 12:17 | 53.62826 | 9.99909 | 46 ft | 15 kts | 243° |
| 2026-04-25 12:18 | 53.62825 | 9.99783 | 42 ft | 11 kts | 315° |
| 2026-04-25 12:18 | 53.62897 | 9.99719 | 45 ft | 15 kts | 332° |
| 2026-04-25 12:18 | 53.63146 | 9.99499 | 46 ft | 73 kts | 333° |
| 2026-04-25 12:18 | 53.63777 | 9.98953 | 47 ft | 128 kts | 332° |
| 2026-04-25 12:19 | 53.65334 | 9.97611 | 756 ft | 156 kts | 329° |
| 2026-04-25 12:19 | 53.66643 | 9.96539 | 1765 ft | 160 kts | 328° |
| 2026-04-25 12:19 | 53.67700 | 9.95643 | 2138 ft | 181 kts | 328° |
| 2026-04-25 12:20 | 53.68898 | 9.94758 | 2661 ft | 196 kts | 339° |
| 2026-04-25 12:20 | 53.70299 | 9.94534 | 3306 ft | 207 kts | 353° |
| 2026-04-25 12:20 | 53.71739 | 9.94603 | 4180 ft | 209 kts | 360° |
| 2026-04-25 12:20 | 53.73087 | 9.95761 | 4997 ft | 236 kts | 38° |
| 2026-04-25 12:21 | 53.73927 | 9.98260 | 5779 ft | 252 kts | 62° |
| 2026-04-25 12:21 | 53.74293 | 10.01211 | 6501 ft | 267 kts | 88° |
| 2026-04-25 12:21 | 53.73902 | 10.04329 | 7161 ft | 277 kts | 109° |
| 2026-04-25 12:21 | 53.72968 | 10.07389 | 7189 ft | 309 kts | 122° |
| 2026-04-25 12:22 | 53.71836 | 10.10561 | 7093 ft | 318 kts | 121° |
| 2026-04-25 12:22 | 53.70735 | 10.13804 | 7077 ft | 320 kts | 120° |
| 2026-04-25 12:22 | 53.69484 | 10.16917 | 7451 ft | 322 kts | 133° |
| 2026-04-25 12:22 | 53.67873 | 10.19534 | 8308 ft | 322 kts | 146° |
| 2026-04-25 12:23 | 53.65990 | 10.21471 | 9119 ft | 321 kts | 161° |
| 2026-04-25 12:23 | 53.63883 | 10.22678 | 9819 ft | 321 kts | 172° |
| 2026-04-25 12:23 | 53.61715 | 10.23664 | 10259 ft | 326 kts | 172° |
| 2026-04-25 12:23 | 53.59450 | 10.24678 | 10573 ft | 349 kts | 171° |
| 2026-04-25 12:24 | 53.57041 | 10.25748 | 10967 ft | 365 kts | 171° |
| 2026-04-25 12:24 | 53.54564 | 10.26869 | 11656 ft | 370 kts | 171° |
| 2026-04-25 12:24 | 53.52065 | 10.28019 | 12404 ft | 374 kts | 171° |
| 2026-04-25 12:24 | 53.49547 | 10.29179 | 13134 ft | 377 kts | 171° |
| 2026-04-25 12:25 | 53.47004 | 10.30355 | 13861 ft | 380 kts | 171° |
| 2026-04-25 12:25 | 53.44438 | 10.31536 | 14497 ft | 384 kts | 171° |
| 2026-04-25 12:25 | 53.41851 | 10.32720 | 15114 ft | 387 kts | 171° |
| 2026-04-25 12:25 | 53.39240 | 10.33900 | 15750 ft | 390 kts | 171° |
| 2026-04-25 12:26 | 53.36606 | 10.35083 | 16372 ft | 394 kts | 171° |
| 2026-04-25 12:26 | 53.33949 | 10.36277 | 16997 ft | 397 kts | 171° |
| 2026-04-25 12:26 | 53.31264 | 10.37479 | 17598 ft | 401 kts | 171° |
| 2026-04-25 12:26 | 53.28559 | 10.38689 | 18200 ft | 404 kts | 171° |
| 2026-04-25 12:27 | 53.25833 | 10.39910 | 18728 ft | 407 kts | 171° |
| 2026-04-25 12:27 | 53.23082 | 10.41137 | 19258 ft | 410 kts | 171° |
| 2026-04-25 12:27 | 53.20311 | 10.42371 | 19785 ft | 413 kts | 171° |
| 2026-04-25 12:27 | 53.17524 | 10.43607 | 20303 ft | 416 kts | 170° |
| 2026-04-25 12:28 | 53.14711 | 10.44860 | 20815 ft | 419 kts | 170° |
| 2026-04-25 12:28 | 53.11916 | 10.46066 | 21297 ft | 421 kts | 172° |
| 2026-04-25 12:28 | 53.09052 | 10.47116 | 21790 ft | 423 kts | 174° |
| 2026-04-25 12:28 | 53.06148 | 10.48027 | 22295 ft | 425 kts | 175° |
| 2026-04-25 12:29 | 53.03227 | 10.48862 | 22774 ft | 428 kts | 176° |
| 2026-04-25 12:29 | 53.00282 | 10.49682 | 23242 ft | 431 kts | 175° |
| 2026-04-25 12:29 | 52.97319 | 10.50526 | 23697 ft | 434 kts | 175° |
| 2026-04-25 12:29 | 52.94337 | 10.51412 | 24089 ft | 437 kts | 175° |
| 2026-04-25 12:30 | 52.91335 | 10.52332 | 24458 ft | 440 kts | 174° |
| 2026-04-25 12:30 | 52.88317 | 10.53275 | 24833 ft | 443 kts | 174° |
| 2026-04-25 12:30 | 52.85275 | 10.54227 | 25206 ft | 445 kts | 174° |
| 2026-04-25 12:30 | 52.82221 | 10.55178 | 25573 ft | 448 kts | 174° |
| 2026-04-25 12:31 | 52.79148 | 10.56131 | 25934 ft | 451 kts | 174° |
| 2026-04-25 12:31 | 52.76062 | 10.57086 | 26283 ft | 453 kts | 174° |
| 2026-04-25 12:31 | 52.72946 | 10.58045 | 26633 ft | 456 kts | 174° |
| 2026-04-25 12:31 | 52.69820 | 10.59007 | 26968 ft | 459 kts | 174° |
| 2026-04-25 12:32 | 52.66669 | 10.59973 | 27321 ft | 461 kts | 174° |
| 2026-04-25 12:32 | 52.63515 | 10.60935 | 27668 ft | 463 kts | 174° |
| 2026-04-25 12:32 | 52.60333 | 10.61901 | 28007 ft | 466 kts | 174° |
| 2026-04-25 12:32 | 52.57135 | 10.62875 | 28353 ft | 468 kts | 174° |
| 2026-04-25 12:33 | 52.53924 | 10.63851 | 28698 ft | 471 kts | 174° |
| 2026-04-25 12:33 | 52.50694 | 10.64829 | 29036 ft | 473 kts | 174° |
| 2026-04-25 12:33 | 52.47445 | 10.65810 | 29353 ft | 476 kts | 174° |
| 2026-04-25 12:33 | 52.44183 | 10.66792 | 29672 ft | 478 kts | 174° |
| 2026-04-25 12:34 | 52.40905 | 10.67781 | 29972 ft | 480 kts | 174° |
| 2026-04-25 12:34 | 52.37612 | 10.68780 | 30251 ft | 482 kts | 174° |
| 2026-04-25 12:34 | 52.34300 | 10.69789 | 30498 ft | 484 kts | 174° |
| 2026-04-25 12:34 | 52.32104 | 10.70456 | 30662 ft | 486 kts | 174° |
| 2026-04-25 12:35 | 52.27647 | 10.71803 | 30993 ft | 488 kts | 174° |
| 2026-04-25 12:35 | 52.24298 | 10.72806 | 31233 ft | 490 kts | 174° |
| 2026-04-25 12:35 | 52.20943 | 10.73807 | 31556 ft | 490 kts | 174° |
| 2026-04-25 12:35 | 52.17587 | 10.74810 | 31903 ft | 489 kts | 174° |
| 2026-04-25 12:36 | 52.14239 | 10.75810 | 32238 ft | 489 kts | 174° |
| 2026-04-25 12:36 | 52.10892 | 10.76808 | 32569 ft | 488 kts | 174° |
| 2026-04-25 12:36 | 52.07546 | 10.77811 | 32891 ft | 488 kts | 174° |
| 2026-04-25 12:36 | 52.04250 | 10.78798 | 33221 ft | 488 kts | 174° |
| 2026-04-25 12:37 | 52.00911 | 10.79793 | 33549 ft | 487 kts | 174° |
| 2026-04-25 12:37 | 51.97578 | 10.80776 | 33891 ft | 487 kts | 174° |
| 2026-04-25 12:37 | 51.94247 | 10.81753 | 34203 ft | 486 kts | 174° |
| 2026-04-25 12:37 | 51.90917 | 10.82735 | 34517 ft | 485 kts | 173° |
| 2026-04-25 12:38 | 51.87606 | 10.83713 | 34835 ft | 484 kts | 173° |
| 2026-04-25 12:38 | 51.84296 | 10.84696 | 35142 ft | 482 kts | 173° |
| 2026-04-25 12:38 | 51.81001 | 10.85675 | 35459 ft | 481 kts | 173° |
| 2026-04-25 12:38 | 51.77720 | 10.86644 | 35755 ft | 479 kts | 173° |
| 2026-04-25 12:39 | 51.74445 | 10.87607 | 36054 ft | 477 kts | 173° |
| 2026-04-25 12:39 | 51.71180 | 10.88561 | 36336 ft | 476 kts | 173° |
| 2026-04-25 12:39 | 51.67949 | 10.89710 | 36607 ft | 477 kts | 166° |
| 2026-04-25 12:39 | 51.64828 | 10.91583 | 36866 ft | 480 kts | 158° |
| 2026-04-25 12:40 | 51.61817 | 10.93883 | 37039 ft | 480 kts | 157° |
| 2026-04-25 12:40 | 51.55808 | 10.98486 | 37068 ft | 477 kts | 157° |
| 2026-04-25 12:41 | 51.49813 | 11.03056 | 37072 ft | 476 kts | 157° |
| 2026-04-25 12:41 | 51.43829 | 11.07597 | 37073 ft | 476 kts | 157° |
| 2026-04-25 12:42 | 51.37850 | 11.12120 | 37072 ft | 475 kts | 158° |
| 2026-04-25 12:42 | 51.31870 | 11.16617 | 37074 ft | 475 kts | 158° |
| 2026-04-25 12:43 | 51.25880 | 11.21107 | 37077 ft | 475 kts | 157° |
| 2026-04-25 12:43 | 51.16945 | 11.27807 | 37081 ft | 475 kts | 157° |
| 2026-04-25 12:44 | 51.10959 | 11.32262 | 37084 ft | 474 kts | 158° |
| 2026-04-25 12:45 | 51.01995 | 11.38933 | 37084 ft | 474 kts | 157° |
| 2026-04-25 12:45 | 50.93041 | 11.45556 | 37082 ft | 473 kts | 158° |
| 2026-04-25 12:46 | 50.87079 | 11.49946 | 37083 ft | 472 kts | 157° |
| 2026-04-25 12:46 | 50.81126 | 11.54335 | 37079 ft | 472 kts | 158° |
| 2026-04-25 12:47 | 50.75172 | 11.58705 | 37078 ft | 471 kts | 158° |
| 2026-04-25 12:47 | 50.69223 | 11.63053 | 37077 ft | 471 kts | 158° |
| 2026-04-25 12:48 | 50.63284 | 11.67393 | 37072 ft | 470 kts | 157° |
| 2026-04-25 12:48 | 50.57358 | 11.71719 | 37081 ft | 469 kts | 158° |
| 2026-04-25 12:49 | 50.51455 | 11.75981 | 37084 ft | 469 kts | 158° |
| 2026-04-25 12:49 | 50.45532 | 11.80269 | 37082 ft | 468 kts | 158° |
| 2026-04-25 12:50 | 50.40582 | 11.83852 | 37091 ft | 468 kts | 158° |
| 2026-04-25 12:50 | 50.34697 | 11.88091 | 37089 ft | 467 kts | 158° |
| 2026-04-25 12:51 | 50.28788 | 11.92321 | 37086 ft | 467 kts | 158° |
| 2026-04-25 12:51 | 50.22881 | 11.96543 | 37085 ft | 467 kts | 158° |
| 2026-04-25 12:52 | 50.16984 | 12.00757 | 37085 ft | 466 kts | 158° |
| 2026-04-25 12:52 | 50.11084 | 12.04961 | 37075 ft | 466 kts | 158° |
| 2026-04-25 12:53 | 50.05177 | 12.09151 | 37072 ft | 466 kts | 158° |
| 2026-04-25 12:53 | 49.99282 | 12.13328 | 37058 ft | 466 kts | 158° |
| 2026-04-25 12:54 | 49.93388 | 12.17500 | 37058 ft | 466 kts | 159° |
| 2026-04-25 12:54 | 49.87481 | 12.21660 | 37055 ft | 465 kts | 159° |
| 2026-04-25 12:55 | 49.82579 | 12.25099 | 37063 ft | 465 kts | 159° |
| 2026-04-25 12:55 | 49.75683 | 12.29926 | 37056 ft | 465 kts | 159° |
| 2026-04-25 12:56 | 49.70068 | 12.34945 | 37052 ft | 471 kts | 144° |
| 2026-04-25 12:56 | 49.64919 | 12.41195 | 37044 ft | 471 kts | 145° |
| 2026-04-25 12:57 | 49.59756 | 12.47436 | 37039 ft | 471 kts | 145° |
| 2026-04-25 12:57 | 49.54586 | 12.53648 | 37038 ft | 471 kts | 145° |
| 2026-04-25 12:58 | 49.49413 | 12.59843 | 37041 ft | 471 kts | 145° |
| 2026-04-25 12:58 | 49.44239 | 12.66039 | 37048 ft | 471 kts | 145° |
| 2026-04-25 12:59 | 49.39057 | 12.72210 | 37047 ft | 471 kts | 145° |
| 2026-04-25 12:59 | 49.33875 | 12.78368 | 37049 ft | 471 kts | 145° |
| 2026-04-25 13:00 | 49.29567 | 12.83480 | 37047 ft | 471 kts | 146° |
| 2026-04-25 13:00 | 49.23543 | 12.90609 | 37055 ft | 471 kts | 146° |
| 2026-04-25 13:01 | 49.18356 | 12.96715 | 37058 ft | 470 kts | 146° |
| 2026-04-25 13:01 | 49.13172 | 13.02811 | 37062 ft | 470 kts | 146° |
| 2026-04-25 13:02 | 49.07991 | 13.08898 | 37064 ft | 469 kts | 146° |
| 2026-04-25 13:02 | 49.02814 | 13.14956 | 37062 ft | 469 kts | 146° |
| 2026-04-25 13:03 | 48.97643 | 13.20990 | 37061 ft | 468 kts | 146° |
| 2026-04-25 13:03 | 48.92475 | 13.27013 | 37059 ft | 468 kts | 146° |
| 2026-04-25 13:04 | 48.87305 | 13.33012 | 37048 ft | 467 kts | 146° |
| 2026-04-25 13:04 | 48.82137 | 13.38991 | 37048 ft | 467 kts | 146° |
| 2026-04-25 13:05 | 48.76967 | 13.44952 | 37051 ft | 467 kts | 147° |
| 2026-04-25 13:05 | 48.71795 | 13.50910 | 37054 ft | 466 kts | 147° |
| 2026-04-25 13:06 | 48.66664 | 13.56806 | 37051 ft | 466 kts | 147° |
| 2026-04-25 13:06 | 48.61420 | 13.62666 | 37046 ft | 465 kts | 148° |
| 2026-04-25 13:07 | 48.56176 | 13.68263 | 37045 ft | 465 kts | 149° |
| 2026-04-25 13:07 | 48.50890 | 13.73872 | 37044 ft | 465 kts | 149° |
| 2026-04-25 13:08 | 48.45617 | 13.79495 | 37040 ft | 464 kts | 149° |
| 2026-04-25 13:08 | 48.40346 | 13.85131 | 37041 ft | 464 kts | 149° |
| 2026-04-25 13:09 | 48.35077 | 13.90750 | 37041 ft | 464 kts | 149° |
| 2026-04-25 13:09 | 48.29806 | 13.96353 | 37038 ft | 464 kts | 149° |
| 2026-04-25 13:10 | 48.24531 | 14.01946 | 37039 ft | 464 kts | 149° |
| 2026-04-25 13:10 | 48.19244 | 14.07524 | 37038 ft | 464 kts | 149° |
| 2026-04-25 13:11 | 48.13958 | 14.13089 | 37039 ft | 465 kts | 149° |
| 2026-04-25 13:11 | 48.08670 | 14.18649 | 37040 ft | 465 kts | 149° |
| 2026-04-25 13:12 | 48.03373 | 14.24196 | 37039 ft | 465 kts | 149° |
| 2026-04-25 13:12 | 47.98976 | 14.28802 | 37044 ft | 465 kts | 149° |
| 2026-04-25 13:13 | 47.92787 | 14.35262 | 37045 ft | 464 kts | 149° |
| 2026-04-25 13:13 | 47.87490 | 14.40775 | 37047 ft | 464 kts | 149° |
| 2026-04-25 13:14 | 47.82185 | 14.46273 | 37044 ft | 464 kts | 149° |
| 2026-04-25 13:14 | 47.76916 | 14.51717 | 37044 ft | 464 kts | 149° |
| 2026-04-25 13:15 | 47.71584 | 14.57227 | 37045 ft | 464 kts | 149° |
| 2026-04-25 13:15 | 47.66282 | 14.62689 | 37063 ft | 464 kts | 149° |
| 2026-04-25 13:16 | 47.60977 | 14.68154 | 37048 ft | 463 kts | 149° |
| 2026-04-25 13:16 | 47.55685 | 14.73584 | 37039 ft | 463 kts | 149° |
| 2026-04-25 13:17 | 47.50417 | 14.78967 | 37035 ft | 463 kts | 149° |
| 2026-04-25 13:17 | 47.45082 | 14.84408 | 37030 ft | 463 kts | 149° |
| 2026-04-25 13:18 | 47.39773 | 14.89803 | 37029 ft | 463 kts | 149° |
| 2026-04-25 13:18 | 47.34498 | 14.95154 | 37026 ft | 464 kts | 149° |
| 2026-04-25 13:19 | 47.29184 | 15.00540 | 37024 ft | 464 kts | 149° |
| 2026-04-25 13:19 | 47.25623 | 15.04132 | 37018 ft | 463 kts | 149° |
| 2026-04-25 13:20 | 47.18532 | 15.11259 | 37016 ft | 464 kts | 149° |
| 2026-04-25 13:20 | 47.13209 | 15.16615 | 37003 ft | 463 kts | 149° |
| 2026-04-25 13:21 | 47.07894 | 15.21939 | 36997 ft | 463 kts | 149° |
| 2026-04-25 13:21 | 47.02572 | 15.27263 | 36991 ft | 463 kts | 149° |
| 2026-04-25 13:22 | 46.97259 | 15.32580 | 36989 ft | 462 kts | 150° |
| 2026-04-25 13:23 | 46.89274 | 15.40510 | 36991 ft | 462 kts | 150° |
| 2026-04-25 13:23 | 46.83944 | 15.45780 | 36996 ft | 463 kts | 150° |
| 2026-04-25 13:24 | 46.78611 | 15.51053 | 36993 ft | 463 kts | 150° |
| 2026-04-25 13:24 | 46.73282 | 15.56325 | 37001 ft | 463 kts | 150° |
| 2026-04-25 13:25 | 46.67942 | 15.61580 | 36999 ft | 462 kts | 150° |
| 2026-04-25 13:25 | 46.62609 | 15.66808 | 36996 ft | 462 kts | 150° |
| 2026-04-25 13:26 | 46.57304 | 15.71993 | 36996 ft | 463 kts | 150° |
| 2026-04-25 13:26 | 46.51962 | 15.77210 | 36996 ft | 463 kts | 150° |
| 2026-04-25 13:27 | 46.46621 | 15.82417 | 36997 ft | 462 kts | 150° |
| 2026-04-25 13:27 | 46.41279 | 15.87608 | 36996 ft | 462 kts | 150° |
| 2026-04-25 13:28 | 46.35937 | 15.92793 | 36999 ft | 462 kts | 150° |
| 2026-04-25 13:28 | 46.30585 | 15.97955 | 37004 ft | 461 kts | 152° |
| 2026-04-25 13:29 | 46.25074 | 16.02647 | 37002 ft | 459 kts | 155° |
| 2026-04-25 13:29 | 46.19445 | 16.06978 | 37010 ft | 459 kts | 156° |
| 2026-04-25 13:30 | 46.11022 | 16.13542 | 37011 ft | 459 kts | 155° |
| 2026-04-25 13:31 | 46.02643 | 16.20270 | 37011 ft | 459 kts | 155° |
| 2026-04-25 13:31 | 45.97086 | 16.24705 | 37009 ft | 459 kts | 155° |
| 2026-04-25 13:32 | 45.91497 | 16.29133 | 37007 ft | 458 kts | 155° |
| 2026-04-25 13:32 | 45.85907 | 16.33545 | 37008 ft | 458 kts | 155° |
| 2026-04-25 13:33 | 45.80313 | 16.37933 | 37003 ft | 458 kts | 155° |
| 2026-04-25 13:33 | 45.74713 | 16.42317 | 37007 ft | 459 kts | 155° |
| 2026-04-25 13:34 | 45.69119 | 16.46710 | 37015 ft | 458 kts | 155° |
| 2026-04-25 13:34 | 45.63526 | 16.51087 | 37018 ft | 458 kts | 155° |
| 2026-04-25 13:35 | 45.58873 | 16.54722 | 37020 ft | 458 kts | 155° |
| 2026-04-25 13:35 | 45.53285 | 16.59072 | 37015 ft | 457 kts | 155° |
| 2026-04-25 13:36 | 45.46782 | 16.64102 | 37012 ft | 457 kts | 155° |
| 2026-04-25 13:36 | 45.41197 | 16.68428 | 37018 ft | 457 kts | 154° |
| 2026-04-25 13:37 | 45.36511 | 16.72055 | 37018 ft | 457 kts | 154° |
| 2026-04-25 13:37 | 45.30959 | 16.76329 | 37019 ft | 457 kts | 154° |
| 2026-04-25 13:38 | 45.25371 | 16.80617 | 37018 ft | 456 kts | 154° |
| 2026-04-25 13:38 | 45.19783 | 16.84917 | 37019 ft | 456 kts | 154° |
| 2026-04-25 13:39 | 45.14204 | 16.89206 | 37019 ft | 456 kts | 154° |
| 2026-04-25 13:39 | 45.08618 | 16.93471 | 37020 ft | 456 kts | 154° |
| 2026-04-25 13:40 | 45.03029 | 16.97710 | 37023 ft | 456 kts | 154° |
| 2026-04-25 13:40 | 44.97443 | 17.01958 | 37021 ft | 456 kts | 154° |
| 2026-04-25 13:41 | 44.91855 | 17.06210 | 37027 ft | 456 kts | 154° |
| 2026-04-25 13:41 | 44.86275 | 17.10450 | 37029 ft | 455 kts | 154° |
| 2026-04-25 13:42 | 44.80694 | 17.14664 | 37025 ft | 455 kts | 154° |
| 2026-04-25 13:42 | 44.75148 | 17.18850 | 37026 ft | 455 kts | 154° |
| 2026-04-25 13:43 | 44.69569 | 17.23044 | 37026 ft | 455 kts | 154° |
| 2026-04-25 13:43 | 44.63981 | 17.27222 | 37029 ft | 455 kts | 154° |
| 2026-04-25 13:44 | 44.58395 | 17.31402 | 37032 ft | 455 kts | 154° |
| 2026-04-25 13:44 | 44.52814 | 17.35592 | 37030 ft | 455 kts | 154° |
| 2026-04-25 13:45 | 44.47235 | 17.39765 | 37032 ft | 455 kts | 154° |
| 2026-04-25 13:45 | 44.41653 | 17.43916 | 37032 ft | 454 kts | 154° |
| 2026-04-25 13:46 | 44.36066 | 17.48054 | 37036 ft | 454 kts | 154° |
| 2026-04-25 13:46 | 44.30483 | 17.52181 | 37034 ft | 454 kts | 153° |
| 2026-04-25 13:47 | 44.24895 | 17.56311 | 37040 ft | 454 kts | 153° |
| 2026-04-25 13:47 | 44.19308 | 17.60430 | 37036 ft | 454 kts | 153° |
| 2026-04-25 13:48 | 44.13727 | 17.64552 | 37038 ft | 454 kts | 153° |
| 2026-04-25 13:48 | 44.08094 | 17.68490 | 37043 ft | 453 kts | 156° |
| 2026-04-25 13:49 | 44.02301 | 17.71967 | 37037 ft | 452 kts | 159° |
| 2026-04-25 13:49 | 43.96524 | 17.75294 | 37046 ft | 452 kts | 158° |
| 2026-04-25 13:50 | 43.90740 | 17.78742 | 37042 ft | 452 kts | 157° |
| 2026-04-25 13:50 | 43.84969 | 17.82267 | 37045 ft | 453 kts | 157° |
| 2026-04-25 13:51 | 43.79205 | 17.85783 | 37042 ft | 452 kts | 157° |
| 2026-04-25 13:51 | 43.73436 | 17.89257 | 37047 ft | 452 kts | 157° |
| 2026-04-25 13:52 | 43.67662 | 17.92716 | 37040 ft | 452 kts | 157° |
| 2026-04-25 13:52 | 43.61894 | 17.96172 | 37042 ft | 452 kts | 157° |
| 2026-04-25 13:53 | 43.56128 | 17.99626 | 37018 ft | 452 kts | 157° |
| 2026-04-25 13:53 | 43.50357 | 18.03080 | 37016 ft | 452 kts | 157° |
| 2026-04-25 13:54 | 43.44581 | 18.06523 | 37009 ft | 452 kts | 157° |
| 2026-04-25 13:54 | 43.38804 | 18.09951 | 37009 ft | 452 kts | 157° |
| 2026-04-25 13:55 | 43.33026 | 18.13389 | 37017 ft | 452 kts | 156° |
| 2026-04-25 13:55 | 43.27250 | 18.16817 | 37014 ft | 452 kts | 156° |
| 2026-04-25 13:56 | 43.21470 | 18.20223 | 37019 ft | 452 kts | 156° |
| 2026-04-25 13:56 | 43.15732 | 18.23610 | 37031 ft | 452 kts | 156° |
| 2026-04-25 13:57 | 43.09962 | 18.27015 | 37034 ft | 452 kts | 156° |
| 2026-04-25 13:57 | 43.04187 | 18.30397 | 37035 ft | 452 kts | 156° |
| 2026-04-25 13:58 | 42.98411 | 18.33778 | 37047 ft | 451 kts | 156° |
| 2026-04-25 13:58 | 42.92642 | 18.37155 | 37045 ft | 451 kts | 156° |
| 2026-04-25 13:59 | 42.86871 | 18.40528 | 37035 ft | 451 kts | 156° |
| 2026-04-25 13:59 | 42.81102 | 18.43896 | 37040 ft | 451 kts | 156° |
| 2026-04-25 14:00 | 42.77239 | 18.46143 | 37042 ft | 451 kts | 156° |
| 2026-04-25 14:00 | 42.69555 | 18.50592 | 37039 ft | 451 kts | 156° |
| 2026-04-25 14:01 | 42.63782 | 18.53936 | 37044 ft | 451 kts | 156° |
| 2026-04-25 14:01 | 42.58017 | 18.57280 | 37049 ft | 450 kts | 156° |
| 2026-04-25 14:02 | 42.52253 | 18.60609 | 37041 ft | 450 kts | 156° |
| 2026-04-25 14:02 | 42.46525 | 18.63900 | 37040 ft | 450 kts | 156° |
| 2026-04-25 14:03 | 42.40733 | 18.67223 | 37032 ft | 449 kts | 156° |
| 2026-04-25 14:03 | 42.34976 | 18.70522 | 37034 ft | 449 kts | 156° |
| 2026-04-25 14:04 | 42.29172 | 18.73654 | 37033 ft | 449 kts | 159° |
| 2026-04-25 14:04 | 42.23232 | 18.76284 | 37029 ft | 450 kts | 161° |
| 2026-04-25 14:05 | 42.17284 | 18.78752 | 37040 ft | 450 kts | 161° |
| 2026-04-25 14:05 | 42.11315 | 18.81328 | 37048 ft | 450 kts | 160° |
| 2026-04-25 14:06 | 42.05373 | 18.83969 | 37060 ft | 450 kts | 160° |
| 2026-04-25 14:06 | 41.99437 | 18.86603 | 37054 ft | 449 kts | 160° |
| 2026-04-25 14:07 | 41.93499 | 18.89221 | 37051 ft | 449 kts | 160° |
| 2026-04-25 14:07 | 41.87566 | 18.91815 | 37054 ft | 448 kts | 160° |
| 2026-04-25 14:08 | 41.81637 | 18.94405 | 37055 ft | 448 kts | 160° |
| 2026-04-25 14:08 | 41.75711 | 18.96999 | 37039 ft | 448 kts | 160° |
| 2026-04-25 14:09 | 41.69790 | 18.99582 | 37050 ft | 448 kts | 160° |
| 2026-04-25 14:09 | 41.63859 | 19.02168 | 37047 ft | 448 kts | 160° |
| 2026-04-25 14:10 | 41.57936 | 19.04750 | 37045 ft | 448 kts | 160° |
| 2026-04-25 14:10 | 41.52008 | 19.07310 | 37050 ft | 448 kts | 160° |
| 2026-04-25 14:11 | 41.46087 | 19.09872 | 37044 ft | 448 kts | 160° |
| 2026-04-25 14:11 | 41.40201 | 19.12601 | 37036 ft | 447 kts | 157° |
| 2026-04-25 14:12 | 41.34387 | 19.15522 | 37043 ft | 446 kts | 156° |
| 2026-04-25 14:12 | 41.28580 | 19.18441 | 37047 ft | 446 kts | 157° |
| 2026-04-25 14:13 | 41.22748 | 19.21286 | 37043 ft | 446 kts | 157° |
| 2026-04-25 14:13 | 41.16911 | 19.24100 | 37045 ft | 446 kts | 157° |
| 2026-04-25 14:14 | 41.11072 | 19.26919 | 37043 ft | 446 kts | 157° |
| 2026-04-25 14:14 | 41.05278 | 19.29726 | 37038 ft | 446 kts | 157° |
| 2026-04-25 14:15 | 40.99447 | 19.32548 | 37039 ft | 446 kts | 157° |
| 2026-04-25 14:15 | 40.93615 | 19.35373 | 37035 ft | 446 kts | 157° |
| 2026-04-25 14:15 | 40.90703 | 19.36776 | 36871 ft | 446 kts | 157° |
| 2026-04-25 14:16 | 40.87777 | 19.38184 | 36140 ft | 449 kts | 157° |
| 2026-04-25 14:16 | 40.84830 | 19.39601 | 35338 ft | 452 kts | 157° |
| 2026-04-25 14:16 | 40.81855 | 19.41029 | 34494 ft | 457 kts | 157° |
| 2026-04-25 14:16 | 40.78879 | 19.42449 | 33974 ft | 453 kts | 157° |
| 2026-04-25 14:17 | 40.75926 | 19.43856 | 33374 ft | 450 kts | 157° |
| 2026-04-25 14:17 | 40.72998 | 19.45255 | 32799 ft | 445 kts | 157° |
| 2026-04-25 14:17 | 40.70104 | 19.46640 | 32236 ft | 442 kts | 157° |
| 2026-04-25 14:17 | 40.67220 | 19.48020 | 31676 ft | 438 kts | 157° |
| 2026-04-25 14:18 | 40.64362 | 19.49387 | 31116 ft | 435 kts | 157° |
| 2026-04-25 14:18 | 40.61561 | 19.50730 | 30579 ft | 433 kts | 157° |
| 2026-04-25 14:18 | 40.58740 | 19.52082 | 30022 ft | 430 kts | 157° |
| 2026-04-25 14:18 | 40.55939 | 19.53417 | 29464 ft | 426 kts | 157° |
| 2026-04-25 14:19 | 40.53160 | 19.54736 | 28960 ft | 421 kts | 157° |
| 2026-04-25 14:19 | 40.50414 | 19.56036 | 28445 ft | 416 kts | 157° |
| 2026-04-25 14:19 | 40.47703 | 19.57319 | 27957 ft | 412 kts | 157° |
| 2026-04-25 14:19 | 40.45022 | 19.58588 | 27490 ft | 407 kts | 158° |
| 2026-04-25 14:20 | 40.42368 | 19.59845 | 27016 ft | 403 kts | 158° |
| 2026-04-25 14:20 | 40.41481 | 19.60264 | 26865 ft | 401 kts | 158° |
| 2026-04-25 14:20 | 40.37156 | 19.62313 | 26120 ft | 394 kts | 158° |
| 2026-04-25 14:20 | 40.35452 | 19.63120 | 25817 ft | 391 kts | 158° |
| 2026-04-25 14:21 | 40.32902 | 19.64325 | 25371 ft | 388 kts | 158° |
| 2026-04-25 14:21 | 40.30377 | 19.65519 | 24928 ft | 385 kts | 158° |
| 2026-04-25 14:21 | 40.27865 | 19.66705 | 24471 ft | 383 kts | 158° |
| 2026-04-25 14:21 | 40.25370 | 19.67882 | 24019 ft | 381 kts | 158° |
| 2026-04-25 14:22 | 40.22878 | 19.69056 | 23548 ft | 379 kts | 158° |
| 2026-04-25 14:22 | 40.20402 | 19.70222 | 23032 ft | 377 kts | 158° |
| 2026-04-25 14:22 | 40.17943 | 19.71378 | 22570 ft | 374 kts | 158° |
| 2026-04-25 14:22 | 40.15497 | 19.72524 | 22100 ft | 372 kts | 158° |
| 2026-04-25 14:23 | 40.13069 | 19.73661 | 21639 ft | 370 kts | 158° |
| 2026-04-25 14:23 | 40.10648 | 19.74792 | 21181 ft | 368 kts | 158° |
| 2026-04-25 14:23 | 40.08240 | 19.75919 | 20723 ft | 367 kts | 158° |
| 2026-04-25 14:23 | 40.05840 | 19.77046 | 20260 ft | 366 kts | 158° |
| 2026-04-25 14:24 | 40.03447 | 19.78172 | 19811 ft | 364 kts | 158° |
| 2026-04-25 14:24 | 40.01096 | 19.79276 | 19358 ft | 363 kts | 158° |
| 2026-04-25 14:24 | 39.98752 | 19.80375 | 18913 ft | 363 kts | 158° |
| 2026-04-25 14:24 | 39.96501 | 19.81425 | 18490 ft | 362 kts | 158° |
| 2026-04-25 14:25 | 39.94128 | 19.82527 | 18008 ft | 361 kts | 158° |
| 2026-04-25 14:25 | 39.91774 | 19.83619 | 17552 ft | 359 kts | 158° |
| 2026-04-25 14:25 | 39.89415 | 19.84653 | 17104 ft | 357 kts | 163° |
| 2026-04-25 14:25 | 39.87733 | 19.84905 | 16541 ft | 367 kts | 182° |
| 2026-04-25 14:26 | 39.84638 | 19.83348 | 16205 ft | 359 kts | 220° |
| 2026-04-25 14:26 | 39.83112 | 19.80858 | 15903 ft | 352 kts | 246° |
| 2026-04-25 14:26 | 39.82555 | 19.77787 | 15357 ft | 350 kts | 268° |
| 2026-04-25 14:26 | 39.82246 | 19.74578 | 14443 ft | 366 kts | 256° |
| 2026-04-25 14:27 | 39.81214 | 19.71544 | 13956 ft | 365 kts | 238° |
| 2026-04-25 14:27 | 39.79564 | 19.69110 | 13220 ft | 357 kts | 218° |
| 2026-04-25 14:27 | 39.77423 | 19.67568 | 12443 ft | 350 kts | 198° |
| 2026-04-25 14:27 | 39.75117 | 19.66611 | 11612 ft | 346 kts | 197° |
| 2026-04-25 14:28 | 39.72823 | 19.65684 | 10833 ft | 342 kts | 197° |
| 2026-04-25 14:28 | 39.70569 | 19.64775 | 10155 ft | 335 kts | 197° |
| 2026-04-25 14:28 | 39.68418 | 19.63909 | 9968 ft | 313 kts | 197° |
| 2026-04-25 14:28 | 39.66373 | 19.63083 | 9465 ft | 305 kts | 197° |
| 2026-04-25 14:29 | 39.64352 | 19.62266 | 9039 ft | 304 kts | 197° |
| 2026-04-25 14:29 | 39.62324 | 19.61443 | 8566 ft | 306 kts | 197° |
| 2026-04-25 14:29 | 39.60281 | 19.60614 | 8058 ft | 308 kts | 197° |
| 2026-04-25 14:29 | 39.58224 | 19.59991 | 7570 ft | 308 kts | 183° |
| 2026-04-25 14:30 | 39.56115 | 19.60199 | 7188 ft | 302 kts | 164° |
| 2026-04-25 14:30 | 39.52488 | 19.62654 | 6503 ft | 290 kts | 145° |
| 2026-04-25 14:30 | 39.50822 | 19.64050 | 6282 ft | 281 kts | 146° |
| 2026-04-25 14:31 | 39.49207 | 19.65401 | 6055 ft | 272 kts | 145° |
| 2026-04-25 14:31 | 39.47645 | 19.66708 | 5868 ft | 262 kts | 145° |
| 2026-04-25 14:31 | 39.46142 | 19.67962 | 5690 ft | 252 kts | 145° |
| 2026-04-25 14:31 | 39.44695 | 19.69168 | 5516 ft | 243 kts | 145° |
| 2026-04-25 14:32 | 39.43296 | 19.70337 | 5340 ft | 236 kts | 145° |
| 2026-04-25 14:32 | 39.41928 | 19.71479 | 5169 ft | 231 kts | 145° |
| 2026-04-25 14:32 | 39.40664 | 19.72693 | 4996 ft | 223 kts | 130° |
| 2026-04-25 14:32 | 39.39899 | 19.74380 | 4826 ft | 216 kts | 104° |
| 2026-04-25 14:33 | 39.39752 | 19.76283 | 4648 ft | 213 kts | 87° |
| 2026-04-25 14:33 | 39.39783 | 19.78189 | 4469 ft | 211 kts | 88° |
| 2026-04-25 14:33 | 39.39811 | 19.80064 | 4286 ft | 207 kts | 88° |
| 2026-04-25 14:33 | 39.39838 | 19.81897 | 4131 ft | 200 kts | 88° |
| 2026-04-25 14:34 | 39.39863 | 19.83660 | 3959 ft | 194 kts | 88° |
| 2026-04-25 14:34 | 39.39887 | 19.85396 | 3771 ft | 193 kts | 88° |
| 2026-04-25 14:34 | 39.39919 | 19.87127 | 3593 ft | 193 kts | 84° |
| 2026-04-25 14:34 | 39.40213 | 19.88807 | 3422 ft | 192 kts | 71° |
| 2026-04-25 14:35 | 39.40596 | 19.90465 | 3245 ft | 192 kts | 72° |
| 2026-04-25 14:35 | 39.40975 | 19.92127 | 3075 ft | 193 kts | 72° |
| 2026-04-25 14:35 | 39.41346 | 19.93754 | 2950 ft | 187 kts | 71° |
| 2026-04-25 14:35 | 39.41712 | 19.95353 | 2892 ft | 184 kts | 70° |
| 2026-04-25 14:36 | 39.42360 | 19.96646 | 2900 ft | 180 kts | 36° |
| 2026-04-25 14:36 | 39.43491 | 19.97229 | 2790 ft | 174 kts | 360° |
| 2026-04-25 14:36 | 39.44674 | 19.96937 | 2598 ft | 172 kts | 343° |
| 2026-04-25 14:36 | 39.45804 | 19.96509 | 2473 ft | 165 kts | 342° |
| 2026-04-25 14:37 | 39.46877 | 19.96081 | 2277 ft | 158 kts | 340° |
| 2026-04-25 14:37 | 39.47913 | 19.95634 | 2054 ft | 156 kts | 339° |
| 2026-04-25 14:37 | 39.48938 | 19.95192 | 1854 ft | 155 kts | 340° |
| 2026-04-25 14:37 | 39.49929 | 19.94788 | 1789 ft | 142 kts | 340° |
| 2026-04-25 14:38 | 39.50861 | 19.94415 | 1597 ft | 140 kts | 340° |
| 2026-04-25 14:38 | 39.51765 | 19.93955 | 1407 ft | 138 kts | 333° |
| 2026-04-25 14:38 | 39.52630 | 19.93462 | 1257 ft | 137 kts | 336° |
| 2026-04-25 14:38 | 39.53546 | 19.93075 | 1109 ft | 139 kts | 341° |
| 2026-04-25 14:39 | 39.54476 | 19.92698 | 925 ft | 141 kts | 345° |
| 2026-04-25 14:39 | 39.55429 | 19.92433 | 765 ft | 139 kts | 346° |
| 2026-04-25 14:39 | 39.56375 | 19.92176 | 574 ft | 139 kts | 348° |
| 2026-04-25 14:39 | 39.57327 | 19.91940 | 389 ft | 139 kts | 350° |
| 2026-04-25 14:40 | 39.58258 | 19.91703 | 229 ft | 137 kts | 352° |
| 2026-04-25 14:40 | 39.59193 | 19.91474 | 61 ft | 136 kts | 353° |
| 2026-04-25 14:40 | 39.60044 | 19.91256 | 22 ft | 103 kts | 349° |
| 2026-04-25 14:40 | 39.60609 | 19.91106 | 19 ft | 71 kts | 349° |
| 2026-04-25 14:41 | 39.60911 | 19.91026 | 20 ft | 29 kts | 348° |
| 2026-04-25 14:41 | 39.61031 | 19.91037 | 21 ft | 12 kts | 51° |
| 2026-04-25 14:41 | 39.61049 | 19.91111 | 19 ft | 7 kts | 111° |
| 2026-04-25 14:41 | 39.61009 | 19.91136 | 19 ft | 6 kts | 169° |
| 2026-04-25 14:42 | 39.60969 | 19.91147 | 21 ft | 6 kts | 168° |
| 2026-04-25 14:42 | 39.60945 | 19.91154 | 19 ft | 5 kts | 168° |
| 2026-04-25 14:42 | 39.60852 | 19.91179 | 18 ft | 13 kts | 168° |
| 2026-04-25 14:42 | 39.60767 | 19.91201 | 18 ft | 12 kts | 168° |
| 2026-04-25 14:43 | 39.60697 | 19.91219 | 19 ft | 8 kts | 159° |
| 2026-04-25 14:43 | 39.60694 | 19.91274 | 18 ft | 6 kts | 78° |
| 2026-04-25 14:43 | 39.60701 | 19.91320 | 20 ft | 5 kts | 78° |
| 2026-04-25 14:43 | 39.60705 | 19.91348 | 18 ft | 2 kts | 79° |
| 2026-04-25 14:44 | 39.60706 | 19.91352 | 18 ft | 0 kts | 79° |